sensor_id;sensor_type;location;lat;lon;timestamp;P1;durP1;ratioP1;P2;durP2;ratioP2
23129;SDS011;11734;51.046;13.778;2023-04-03T00:00:42;2.70;;;1.60;;
23129;SDS011;11734;51.046;13.778;2023-04-03T00:03:16;2.73;;;1.60;;
23129;SDS011;11734;51.046;13.778;2023-04-03T00:05:44;2.47;;;1.50;;
23129;SDS011;11734;51.046;13.778;2023-04-03T00:08:12;4.03;;;1.57;;
23129;SDS011;11734;51.046;13.778;2023-04-03T00:10:39;3.50;;;1.67;;
23129;SDS011;11734;51.046;13.778;2023-04-03T00:13:06;3.07;;;1.73;;
23129;SDS011;11734;51.046;13.778;2023-04-03T00:15:34;2.87;;;1.87;;
23129;SDS011;11734;51.046;13.778;2023-04-03T00:18:02;2.93;;;1.60;;
23129;SDS011;11734;51.046;13.778;2023-04-03T00:20:29;2.83;;;1.57;;
23129;SDS011;11734;51.046;13.778;2023-04-03T00:22:57;2.77;;;1.60;;
23129;SDS011;11734;51.046;13.778;2023-04-03T00:25:24;2.57;;;1.50;;
23129;SDS011;11734;51.046;13.778;2023-04-03T00:27:51;3.23;;;1.90;;
23129;SDS011;11734;51.046;13.778;2023-04-03T00:30:19;3.33;;;1.60;;
23129;SDS011;11734;51.046;13.778;2023-04-03T00:32:48;4.60;;;1.90;;
23129;SDS011;11734;51.046;13.778;2023-04-03T00:35:15;2.87;;;1.60;;
23129;SDS011;11734;51.046;13.778;2023-04-03T00:37:43;3.80;;;1.87;;
23129;SDS011;11734;51.046;13.778;2023-04-03T00:40:10;2.47;;;1.50;;
23129;SDS011;11734;51.046;13.778;2023-04-03T00:42:42;3.17;;;1.87;;
23129;SDS011;11734;51.046;13.778;2023-04-03T00:47:43;3.77;;;1.77;;
23129;SDS011;11734;51.046;13.778;2023-04-03T00:50:11;2.60;;;1.70;;
23129;SDS011;11734;51.046;13.778;2023-04-03T00:52:38;4.27;;;1.83;;
23129;SDS011;11734;51.046;13.778;2023-04-03T00:55:07;2.87;;;1.53;;
23129;SDS011;11734;51.046;13.778;2023-04-03T00:57:35;2.93;;;1.63;;
23129;SDS011;11734;51.046;13.778;2023-04-03T01:00:10;3.07;;;1.70;;
23129;SDS011;11734;51.046;13.778;2023-04-03T01:02:38;2.90;;;1.57;;
23129;SDS011;11734;51.046;13.778;2023-04-03T01:05:09;2.70;;;1.60;;
23129;SDS011;11734;51.046;13.778;2023-04-03T01:07:36;4.17;;;1.87;;
23129;SDS011;11734;51.046;13.778;2023-04-03T01:10:06;4.27;;;1.80;;
23129;SDS011;11734;51.046;13.778;2023-04-03T01:12:35;2.80;;;1.70;;
23129;SDS011;11734;51.046;13.778;2023-04-03T01:15:07;2.87;;;1.90;;
23129;SDS011;11734;51.046;13.778;2023-04-03T01:17:39;3.27;;;1.90;;
23129;SDS011;11734;51.046;13.778;2023-04-03T01:25:13;2.70;;;1.60;;
23129;SDS011;11734;51.046;13.778;2023-04-03T01:27:41;3.67;;;1.70;;
23129;SDS011;11734;51.046;13.778;2023-04-03T01:30:08;1.63;;;1.40;;
23129;SDS011;11734;51.046;13.778;2023-04-03T01:32:37;2.73;;;1.60;;
23129;SDS011;11734;51.046;13.778;2023-04-03T01:35:06;3.77;;;1.90;;
23129;SDS011;11734;51.046;13.778;2023-04-03T01:37:33;3.60;;;2.00;;
23129;SDS011;11734;51.046;13.778;2023-04-03T01:40:01;2.50;;;1.60;;
23129;SDS011;11734;51.046;13.778;2023-04-03T01:42:31;3.63;;;1.70;;
23129;SDS011;11734;51.046;13.778;2023-04-03T01:44:58;3.47;;;1.70;;
23129;SDS011;11734;51.046;13.778;2023-04-03T01:47:25;4.13;;;1.67;;
23129;SDS011;11734;51.046;13.778;2023-04-03T01:49:53;2.67;;;1.90;;
23129;SDS011;11734;51.046;13.778;2023-04-03T01:52:20;4.43;;;1.97;;
23129;SDS011;11734;51.046;13.778;2023-04-03T01:54:48;3.33;;;1.87;;
23129;SDS011;11734;51.046;13.778;2023-04-03T01:57:15;3.17;;;1.83;;
23129;SDS011;11734;51.046;13.778;2023-04-03T01:59:43;2.43;;;1.70;;
23129;SDS011;11734;51.046;13.778;2023-04-03T02:02:10;3.00;;;1.70;;
23129;SDS011;11734;51.046;13.778;2023-04-03T02:04:38;3.53;;;1.87;;
23129;SDS011;11734;51.046;13.778;2023-04-03T02:07:06;3.30;;;1.73;;
23129;SDS011;11734;51.046;13.778;2023-04-03T02:09:33;3.53;;;1.70;;
23129;SDS011;11734;51.046;13.778;2023-04-03T02:12:01;3.17;;;1.80;;
23129;SDS011;11734;51.046;13.778;2023-04-03T02:14:29;2.77;;;1.70;;
23129;SDS011;11734;51.046;13.778;2023-04-03T02:16:57;2.97;;;1.60;;
23129;SDS011;11734;51.046;13.778;2023-04-03T02:19:24;2.90;;;1.70;;
23129;SDS011;11734;51.046;13.778;2023-04-03T02:21:51;2.50;;;1.70;;
23129;SDS011;11734;51.046;13.778;2023-04-03T02:24:19;3.27;;;1.70;;
23129;SDS011;11734;51.046;13.778;2023-04-03T02:26:46;2.77;;;1.40;;
23129;SDS011;11734;51.046;13.778;2023-04-03T02:29:13;3.17;;;1.80;;
23129;SDS011;11734;51.046;13.778;2023-04-03T02:31:40;4.40;;;1.90;;
23129;SDS011;11734;51.046;13.778;2023-04-03T02:34:08;4.87;;;1.83;;
23129;SDS011;11734;51.046;13.778;2023-04-03T02:36:36;3.47;;;2.00;;
23129;SDS011;11734;51.046;13.778;2023-04-03T02:39:06;2.87;;;1.70;;
23129;SDS011;11734;51.046;13.778;2023-04-03T02:41:34;5.00;;;1.77;;
23129;SDS011;11734;51.046;13.778;2023-04-03T02:44:05;3.67;;;1.83;;
23129;SDS011;11734;51.046;13.778;2023-04-03T02:46:33;3.63;;;1.83;;
23129;SDS011;11734;51.046;13.778;2023-04-03T02:49:01;3.73;;;1.87;;
23129;SDS011;11734;51.046;13.778;2023-04-03T02:51:29;2.80;;;1.67;;
23129;SDS011;11734;51.046;13.778;2023-04-03T02:53:56;3.30;;;1.53;;
23129;SDS011;11734;51.046;13.778;2023-04-03T02:56:27;3.83;;;1.83;;
23129;SDS011;11734;51.046;13.778;2023-04-03T02:58:54;3.83;;;1.93;;
23129;SDS011;11734;51.046;13.778;2023-04-03T03:01:22;4.40;;;1.80;;
23129;SDS011;11734;51.046;13.778;2023-04-03T03:03:49;2.57;;;1.60;;
23129;SDS011;11734;51.046;13.778;2023-04-03T03:06:17;3.77;;;1.80;;
23129;SDS011;11734;51.046;13.778;2023-04-03T03:08:44;3.97;;;2.03;;
23129;SDS011;11734;51.046;13.778;2023-04-03T03:11:11;2.73;;;1.73;;
23129;SDS011;11734;51.046;13.778;2023-04-03T03:13:39;3.57;;;2.20;;
23129;SDS011;11734;51.046;13.778;2023-04-03T03:16:06;6.27;;;2.40;;
23129;SDS011;11734;51.046;13.778;2023-04-03T03:18:34;3.03;;;2.13;;
23129;SDS011;11734;51.046;13.778;2023-04-03T03:21:02;2.50;;;1.90;;
23129;SDS011;11734;51.046;13.778;2023-04-03T03:23:31;3.47;;;2.10;;
23129;SDS011;11734;51.046;13.778;2023-04-03T03:25:59;2.67;;;1.60;;
23129;SDS011;11734;51.046;13.778;2023-04-03T03:28:27;6.67;;;2.17;;
23129;SDS011;11734;51.046;13.778;2023-04-03T03:30:54;4.30;;;1.83;;
23129;SDS011;11734;51.046;13.778;2023-04-03T03:33:22;4.60;;;1.70;;
23129;SDS011;11734;51.046;13.778;2023-04-03T03:35:49;4.30;;;1.93;;
23129;SDS011;11734;51.046;13.778;2023-04-03T03:38:17;3.53;;;1.67;;
23129;SDS011;11734;51.046;13.778;2023-04-03T03:40:44;3.30;;;2.10;;
23129;SDS011;11734;51.046;13.778;2023-04-03T03:43:11;4.73;;;1.83;;
23129;SDS011;11734;51.046;13.778;2023-04-03T03:45:39;2.63;;;1.83;;
23129;SDS011;11734;51.046;13.778;2023-04-03T03:48:06;4.30;;;1.77;;
23129;SDS011;11734;51.046;13.778;2023-04-03T03:50:34;4.27;;;1.70;;
23129;SDS011;11734;51.046;13.778;2023-04-03T03:53:04;2.50;;;1.73;;
23129;SDS011;11734;51.046;13.778;2023-04-03T03:55:31;3.83;;;2.03;;
23129;SDS011;11734;51.046;13.778;2023-04-03T03:57:59;5.53;;;1.97;;
23129;SDS011;11734;51.046;13.778;2023-04-03T04:00:29;3.10;;;1.70;;
23129;SDS011;11734;51.046;13.778;2023-04-03T04:02:57;5.63;;;2.13;;
23129;SDS011;11734;51.046;13.778;2023-04-03T04:05:26;2.63;;;1.50;;
23129;SDS011;11734;51.046;13.778;2023-04-03T04:07:54;4.07;;;2.00;;
23129;SDS011;11734;51.046;13.778;2023-04-03T04:10:23;6.20;;;2.10;;
23129;SDS011;11734;51.046;13.778;2023-04-03T04:12:51;3.63;;;2.07;;
23129;SDS011;11734;51.046;13.778;2023-04-03T04:15:22;4.37;;;1.70;;
23129;SDS011;11734;51.046;13.778;2023-04-03T04:17:50;3.90;;;2.03;;
23129;SDS011;11734;51.046;13.778;2023-04-03T04:20:17;2.37;;;1.67;;
23129;SDS011;11734;51.046;13.778;2023-04-03T04:22:45;4.60;;;1.97;;
23129;SDS011;11734;51.046;13.778;2023-04-03T04:25:13;4.43;;;1.97;;
23129;SDS011;11734;51.046;13.778;2023-04-03T04:27:40;5.00;;;1.60;;
23129;SDS011;11734;51.046;13.778;2023-04-03T04:30:08;2.57;;;1.60;;
23129;SDS011;11734;51.046;13.778;2023-04-03T04:32:36;4.67;;;1.90;;
23129;SDS011;11734;51.046;13.778;2023-04-03T04:35:04;3.13;;;1.90;;
23129;SDS011;11734;51.046;13.778;2023-04-03T04:37:34;3.30;;;1.83;;
23129;SDS011;11734;51.046;13.778;2023-04-03T04:40:02;3.47;;;1.70;;
23129;SDS011;11734;51.046;13.778;2023-04-03T04:42:29;4.77;;;1.70;;
23129;SDS011;11734;51.046;13.778;2023-04-03T04:44:57;4.87;;;1.93;;
23129;SDS011;11734;51.046;13.778;2023-04-03T04:47:24;3.40;;;1.90;;
23129;SDS011;11734;51.046;13.778;2023-04-03T04:49:52;3.90;;;2.03;;
23129;SDS011;11734;51.046;13.778;2023-04-03T04:52:20;5.90;;;2.00;;
23129;SDS011;11734;51.046;13.778;2023-04-03T04:54:48;4.97;;;1.80;;
23129;SDS011;11734;51.046;13.778;2023-04-03T04:57:17;3.20;;;2.10;;
23129;SDS011;11734;51.046;13.778;2023-04-03T04:59:45;3.53;;;1.63;;
23129;SDS011;11734;51.046;13.778;2023-04-03T05:02:12;4.13;;;2.00;;
23129;SDS011;11734;51.046;13.778;2023-04-03T05:04:41;3.13;;;1.70;;
23129;SDS011;11734;51.046;13.778;2023-04-03T05:07:14;8.20;;;2.20;;
23129;SDS011;11734;51.046;13.778;2023-04-03T05:09:41;3.93;;;1.97;;
23129;SDS011;11734;51.046;13.778;2023-04-03T05:12:10;4.17;;;2.30;;
23129;SDS011;11734;51.046;13.778;2023-04-03T05:14:43;3.73;;;2.20;;
23129;SDS011;11734;51.046;13.778;2023-04-03T05:17:10;2.97;;;2.03;;
23129;SDS011;11734;51.046;13.778;2023-04-03T05:19:41;4.13;;;1.93;;
23129;SDS011;11734;51.046;13.778;2023-04-03T05:22:09;4.93;;;2.00;;
23129;SDS011;11734;51.046;13.778;2023-04-03T05:24:36;6.80;;;2.33;;
23129;SDS011;11734;51.046;13.778;2023-04-03T05:27:04;6.40;;;2.10;;
23129;SDS011;11734;51.046;13.778;2023-04-03T05:29:35;3.83;;;1.77;;
23129;SDS011;11734;51.046;13.778;2023-04-03T05:32:03;4.50;;;2.10;;
23129;SDS011;11734;51.046;13.778;2023-04-03T05:34:30;4.53;;;2.00;;
23129;SDS011;11734;51.046;13.778;2023-04-03T05:36:57;4.57;;;2.37;;
23129;SDS011;11734;51.046;13.778;2023-04-03T05:39:27;4.77;;;2.10;;
23129;SDS011;11734;51.046;13.778;2023-04-03T05:41:55;8.67;;;2.30;;
23129;SDS011;11734;51.046;13.778;2023-04-03T05:44:22;3.20;;;2.27;;
23129;SDS011;11734;51.046;13.778;2023-04-03T05:46:52;5.13;;;2.00;;
23129;SDS011;11734;51.046;13.778;2023-04-03T05:49:19;5.50;;;2.30;;
23129;SDS011;11734;51.046;13.778;2023-04-03T05:51:46;4.07;;;2.13;;
23129;SDS011;11734;51.046;13.778;2023-04-03T05:54:25;5.60;;;2.27;;
23129;SDS011;11734;51.046;13.778;2023-04-03T05:57:10;4.67;;;2.17;;
23129;SDS011;11734;51.046;13.778;2023-04-03T05:59:40;4.83;;;2.30;;
23129;SDS011;11734;51.046;13.778;2023-04-03T06:02:07;5.10;;;2.17;;
23129;SDS011;11734;51.046;13.778;2023-04-03T06:04:35;6.43;;;2.50;;
23129;SDS011;11734;51.046;13.778;2023-04-03T06:07:02;5.40;;;2.27;;
23129;SDS011;11734;51.046;13.778;2023-04-03T06:09:29;4.57;;;2.33;;
23129;SDS011;11734;51.046;13.778;2023-04-03T06:11:58;5.83;;;2.83;;
23129;SDS011;11734;51.046;13.778;2023-04-03T06:14:27;3.83;;;1.97;;
23129;SDS011;11734;51.046;13.778;2023-04-03T06:16:54;4.73;;;2.20;;
23129;SDS011;11734;51.046;13.778;2023-04-03T06:19:22;3.00;;;1.90;;
23129;SDS011;11734;51.046;13.778;2023-04-03T06:21:53;6.20;;;2.53;;
23129;SDS011;11734;51.046;13.778;2023-04-03T06:24:22;3.23;;;2.17;;
23129;SDS011;11734;51.046;13.778;2023-04-03T06:26:51;7.17;;;2.37;;
23129;SDS011;11734;51.046;13.778;2023-04-03T06:29:19;3.63;;;1.93;;
23129;SDS011;11734;51.046;13.778;2023-04-03T06:31:46;5.00;;;2.40;;
23129;SDS011;11734;51.046;13.778;2023-04-03T06:34:14;6.13;;;2.50;;
23129;SDS011;11734;51.046;13.778;2023-04-03T06:36:42;4.13;;;2.00;;
23129;SDS011;11734;51.046;13.778;2023-04-03T06:39:12;5.67;;;2.20;;
23129;SDS011;11734;51.046;13.778;2023-04-03T06:41:40;4.73;;;2.20;;
23129;SDS011;11734;51.046;13.778;2023-04-03T06:44:07;7.40;;;2.37;;
23129;SDS011;11734;51.046;13.778;2023-04-03T06:46:37;3.93;;;2.00;;
23129;SDS011;11734;51.046;13.778;2023-04-03T06:49:05;3.77;;;2.30;;
23129;SDS011;11734;51.046;13.778;2023-04-03T06:51:36;5.83;;;2.50;;
23129;SDS011;11734;51.046;13.778;2023-04-03T06:54:03;4.03;;;2.40;;
23129;SDS011;11734;51.046;13.778;2023-04-03T06:56:32;5.43;;;2.37;;
23129;SDS011;11734;51.046;13.778;2023-04-03T06:58:59;3.63;;;2.03;;
23129;SDS011;11734;51.046;13.778;2023-04-03T07:01:27;4.23;;;2.03;;
23129;SDS011;11734;51.046;13.778;2023-04-03T07:04:12;5.63;;;2.30;;
23129;SDS011;11734;51.046;13.778;2023-04-03T07:06:40;4.53;;;2.20;;
23129;SDS011;11734;51.046;13.778;2023-04-03T07:09:09;4.73;;;2.30;;
23129;SDS011;11734;51.046;13.778;2023-04-03T07:11:37;3.87;;;2.03;;
23129;SDS011;11734;51.046;13.778;2023-04-03T07:14:04;4.07;;;2.13;;
23129;SDS011;11734;51.046;13.778;2023-04-03T07:16:34;3.57;;;2.40;;
23129;SDS011;11734;51.046;13.778;2023-04-03T07:19:02;4.77;;;2.33;;
23129;SDS011;11734;51.046;13.778;2023-04-03T07:21:29;3.13;;;2.00;;
23129;SDS011;11734;51.046;13.778;2023-04-03T07:23:56;4.13;;;2.33;;
23129;SDS011;11734;51.046;13.778;2023-04-03T07:26:24;5.87;;;2.40;;
23129;SDS011;11734;51.046;13.778;2023-04-03T07:28:51;5.03;;;2.23;;
23129;SDS011;11734;51.046;13.778;2023-04-03T07:31:19;5.53;;;2.30;;
23129;SDS011;11734;51.046;13.778;2023-04-03T07:33:46;3.27;;;2.37;;
23129;SDS011;11734;51.046;13.778;2023-04-03T07:36:15;4.50;;;2.30;;
23129;SDS011;11734;51.046;13.778;2023-04-03T07:38:43;6.13;;;2.40;;
23129;SDS011;11734;51.046;13.778;2023-04-03T07:41:14;4.73;;;2.10;;
23129;SDS011;11734;51.046;13.778;2023-04-03T07:43:42;5.03;;;2.30;;
23129;SDS011;11734;51.046;13.778;2023-04-03T07:46:09;2.97;;;2.10;;
23129;SDS011;11734;51.046;13.778;2023-04-03T07:48:37;3.07;;;2.20;;
23129;SDS011;11734;51.046;13.778;2023-04-03T07:51:04;4.23;;;2.47;;
23129;SDS011;11734;51.046;13.778;2023-04-03T07:53:32;3.73;;;2.20;;
23129;SDS011;11734;51.046;13.778;2023-04-03T07:55:59;3.43;;;2.30;;
23129;SDS011;11734;51.046;13.778;2023-04-03T07:58:28;4.83;;;2.40;;
23129;SDS011;11734;51.046;13.778;2023-04-03T08:00:56;3.20;;;2.10;;
23129;SDS011;11734;51.046;13.778;2023-04-03T08:03:23;3.77;;;2.30;;
23129;SDS011;11734;51.046;13.778;2023-04-03T08:05:51;5.17;;;2.40;;
23129;SDS011;11734;51.046;13.778;2023-04-03T08:08:23;3.27;;;1.90;;
23129;SDS011;11734;51.046;13.778;2023-04-03T08:10:51;4.20;;;2.30;;
23129;SDS011;11734;51.046;13.778;2023-04-03T08:13:19;3.70;;;2.40;;
23129;SDS011;11734;51.046;13.778;2023-04-03T08:15:47;4.37;;;2.33;;
23129;SDS011;11734;51.046;13.778;2023-04-03T08:18:14;8.07;;;2.67;;
23129;SDS011;11734;51.046;13.778;2023-04-03T08:20:42;4.70;;;2.50;;
23129;SDS011;11734;51.046;13.778;2023-04-03T08:23:10;3.20;;;2.00;;
23129;SDS011;11734;51.046;13.778;2023-04-03T08:25:41;3.23;;;2.10;;
23129;SDS011;11734;51.046;13.778;2023-04-03T08:28:09;4.50;;;2.33;;
23129;SDS011;11734;51.046;13.778;2023-04-03T08:30:40;4.70;;;2.40;;
23129;SDS011;11734;51.046;13.778;2023-04-03T08:33:08;3.57;;;2.00;;
23129;SDS011;11734;51.046;13.778;2023-04-03T08:35:40;5.67;;;2.13;;
23129;SDS011;11734;51.046;13.778;2023-04-03T08:38:08;4.70;;;2.40;;
23129;SDS011;11734;51.046;13.778;2023-04-03T08:40:36;5.23;;;2.30;;
23129;SDS011;11734;51.046;13.778;2023-04-03T08:45:52;3.53;;;2.20;;
23129;SDS011;11734;51.046;13.778;2023-04-03T08:48:24;3.83;;;1.73;;
23129;SDS011;11734;51.046;13.778;2023-04-03T08:50:55;3.30;;;2.30;;
23129;SDS011;11734;51.046;13.778;2023-04-03T08:53:27;4.03;;;2.10;;
23129;SDS011;11734;51.046;13.778;2023-04-03T08:55:57;6.03;;;2.33;;
23129;SDS011;11734;51.046;13.778;2023-04-03T08:58:26;3.63;;;2.10;;
23129;SDS011;11734;51.046;13.778;2023-04-03T09:01:01;2.03;;;1.77;;
23129;SDS011;11734;51.046;13.778;2023-04-03T09:03:31;3.80;;;1.80;;
23129;SDS011;11734;51.046;13.778;2023-04-03T09:06:07;5.70;;;1.90;;
23129;SDS011;11734;51.046;13.778;2023-04-03T09:08:43;5.50;;;2.00;;
23129;SDS011;11734;51.046;13.778;2023-04-03T09:13:57;3.20;;;1.90;;
23129;SDS011;11734;51.046;13.778;2023-04-03T09:16:30;2.53;;;1.60;;
23129;SDS011;11734;51.046;13.778;2023-04-03T09:21:39;3.13;;;1.90;;
23129;SDS011;11734;51.046;13.778;2023-04-03T09:24:09;3.30;;;1.60;;
23129;SDS011;11734;51.046;13.778;2023-04-03T09:29:15;3.37;;;1.70;;
23129;SDS011;11734;51.046;13.778;2023-04-03T09:31:45;3.13;;;1.57;;
23129;SDS011;11734;51.046;13.778;2023-04-03T09:34:18;2.80;;;1.80;;
23129;SDS011;11734;51.046;13.778;2023-04-03T09:36:51;3.10;;;1.70;;
23129;SDS011;11734;51.046;13.778;2023-04-03T09:39:20;5.60;;;2.40;;
23129;SDS011;11734;51.046;13.778;2023-04-03T09:41:55;4.90;;;2.10;;
23129;SDS011;11734;51.046;13.778;2023-04-03T09:44:27;3.30;;;1.90;;
23129;SDS011;11734;51.046;13.778;2023-04-03T09:46:55;3.57;;;2.20;;
23129;SDS011;11734;51.046;13.778;2023-04-03T09:49:22;3.27;;;1.70;;
23129;SDS011;11734;51.046;13.778;2023-04-03T09:51:49;2.33;;;2.00;;
23129;SDS011;11734;51.046;13.778;2023-04-03T09:56:51;2.50;;;1.83;;
23129;SDS011;11734;51.046;13.778;2023-04-03T09:59:19;3.30;;;1.83;;
23129;SDS011;11734;51.046;13.778;2023-04-03T10:01:56;2.53;;;1.50;;
23129;SDS011;11734;51.046;13.778;2023-04-03T10:04:24;1.47;;;1.33;;
23129;SDS011;11734;51.046;13.778;2023-04-03T10:06:53;4.37;;;1.63;;
23129;SDS011;11734;51.046;13.778;2023-04-03T10:09:22;2.07;;;1.63;;
23129;SDS011;11734;51.046;13.778;2023-04-03T10:14:28;2.40;;;1.57;;
23129;SDS011;11734;51.046;13.778;2023-04-03T10:21:58;3.60;;;1.60;;
23129;SDS011;11734;51.046;13.778;2023-04-03T10:29:55;1.43;;;1.33;;
23129;SDS011;11734;51.046;13.778;2023-04-03T10:32:45;3.20;;;1.43;;
23129;SDS011;11734;51.046;13.778;2023-04-03T10:35:25;1.40;;;1.30;;
23129;SDS011;11734;51.046;13.778;2023-04-03T10:40:30;2.40;;;1.30;;
23129;SDS011;11734;51.046;13.778;2023-04-03T10:43:12;1.57;;;1.30;;
23129;SDS011;11734;51.046;13.778;2023-04-03T10:56:48;2.30;;;1.63;;
23129;SDS011;11734;51.046;13.778;2023-04-03T10:59:33;2.37;;;1.60;;
23129;SDS011;11734;51.046;13.778;2023-04-03T11:02:17;2.00;;;1.30;;
23129;SDS011;11734;51.046;13.778;2023-04-03T11:04:50;1.83;;;1.47;;
23129;SDS011;11734;51.046;13.778;2023-04-03T11:07:22;1.23;;;1.00;;
23129;SDS011;11734;51.046;13.778;2023-04-03T11:09:52;2.13;;;1.57;;
23129;SDS011;11734;51.046;13.778;2023-04-03T11:12:26;1.60;;;1.40;;
23129;SDS011;11734;51.046;13.778;2023-04-03T11:14:54;1.77;;;1.47;;
23129;SDS011;11734;51.046;13.778;2023-04-03T11:17:39;3.03;;;1.53;;
23129;SDS011;11734;51.046;13.778;2023-04-03T11:20:15;3.63;;;1.30;;
23129;SDS011;11734;51.046;13.778;2023-04-03T11:22:51;3.40;;;1.60;;
23129;SDS011;11734;51.046;13.778;2023-04-03T11:25:23;2.00;;;1.43;;
23129;SDS011;11734;51.046;13.778;2023-04-03T11:30:19;1.73;;;1.23;;
23129;SDS011;11734;51.046;13.778;2023-04-03T11:35:15;1.67;;;1.37;;
23129;SDS011;11734;51.046;13.778;2023-04-03T11:37:45;1.03;;;0.93;;
23129;SDS011;11734;51.046;13.778;2023-04-03T11:45:32;3.17;;;1.47;;
23129;SDS011;11734;51.046;13.778;2023-04-03T11:50:48;2.30;;;1.30;;
23129;SDS011;11734;51.046;13.778;2023-04-03T12:11:44;2.83;;;1.50;;
23129;SDS011;11734;51.046;13.778;2023-04-03T12:16:24;3.30;;;1.50;;
23129;SDS011;11734;51.046;13.778;2023-04-03T12:26:25;3.30;;;1.80;;
23129;SDS011;11734;51.046;13.778;2023-04-03T12:31:42;1.60;;;1.50;;
23129;SDS011;11734;51.046;13.778;2023-04-03T12:44:26;2.37;;;1.30;;
23129;SDS011;11734;51.046;13.778;2023-04-03T12:46:58;2.33;;;1.43;;
23129;SDS011;11734;51.046;13.778;2023-04-03T12:51:57;3.47;;;1.30;;
23129;SDS011;11734;51.046;13.778;2023-04-03T12:57:08;2.43;;;1.60;;
23129;SDS011;11734;51.046;13.778;2023-04-03T12:59:35;3.77;;;1.80;;
23129;SDS011;11734;51.046;13.778;2023-04-03T13:02:10;2.00;;;1.50;;
23129;SDS011;11734;51.046;13.778;2023-04-03T13:04:38;2.47;;;1.40;;
23129;SDS011;11734;51.046;13.778;2023-04-03T13:07:05;1.60;;;1.50;;
23129;SDS011;11734;51.046;13.778;2023-04-03T13:09:32;1.47;;;1.33;;
23129;SDS011;11734;51.046;13.778;2023-04-03T13:12:01;2.57;;;1.60;;
23129;SDS011;11734;51.046;13.778;2023-04-03T13:14:29;2.10;;;1.17;;
23129;SDS011;11734;51.046;13.778;2023-04-03T13:16:58;2.67;;;1.60;;
23129;SDS011;11734;51.046;13.778;2023-04-03T13:19:26;1.63;;;1.30;;
23129;SDS011;11734;51.046;13.778;2023-04-03T13:22:05;2.87;;;1.60;;
23129;SDS011;11734;51.046;13.778;2023-04-03T13:24:33;2.30;;;1.70;;
23129;SDS011;11734;51.046;13.778;2023-04-03T13:27:02;1.70;;;1.60;;
23129;SDS011;11734;51.046;13.778;2023-04-03T13:29:31;3.40;;;1.80;;
23129;SDS011;11734;51.046;13.778;2023-04-03T13:32:00;2.43;;;1.70;;
23129;SDS011;11734;51.046;13.778;2023-04-03T13:34:29;2.97;;;1.70;;
23129;SDS011;11734;51.046;13.778;2023-04-03T13:36:59;2.00;;;1.60;;
23129;SDS011;11734;51.046;13.778;2023-04-03T13:39:37;5.23;;;1.70;;
23129;SDS011;11734;51.046;13.778;2023-04-03T13:42:16;3.17;;;1.50;;
23129;SDS011;11734;51.046;13.778;2023-04-03T13:44:43;2.80;;;1.90;;
23129;SDS011;11734;51.046;13.778;2023-04-03T13:49:39;1.57;;;1.47;;
23129;SDS011;11734;51.046;13.778;2023-04-03T13:52:27;2.90;;;1.57;;
23129;SDS011;11734;51.046;13.778;2023-04-03T13:54:58;3.47;;;1.57;;
23129;SDS011;11734;51.046;13.778;2023-04-03T13:57:28;2.07;;;1.53;;
23129;SDS011;11734;51.046;13.778;2023-04-03T13:59:55;2.10;;;1.60;;
23129;SDS011;11734;51.046;13.778;2023-04-03T14:02:30;1.83;;;1.67;;
23129;SDS011;11734;51.046;13.778;2023-04-03T14:04:59;2.93;;;1.77;;
23129;SDS011;11734;51.046;13.778;2023-04-03T14:07:28;2.30;;;1.47;;
23129;SDS011;11734;51.046;13.778;2023-04-03T14:09:57;2.80;;;1.70;;
23129;SDS011;11734;51.046;13.778;2023-04-03T14:12:26;3.63;;;1.40;;
23129;SDS011;11734;51.046;13.778;2023-04-03T14:14:58;2.30;;;1.43;;
23129;SDS011;11734;51.046;13.778;2023-04-03T14:17:25;2.63;;;1.50;;
23129;SDS011;11734;51.046;13.778;2023-04-03T14:19:54;3.73;;;1.53;;
23129;SDS011;11734;51.046;13.778;2023-04-03T14:22:29;1.40;;;1.10;;
23129;SDS011;11734;51.046;13.778;2023-04-03T14:24:58;1.63;;;1.43;;
23129;SDS011;11734;51.046;13.778;2023-04-03T14:27:27;2.47;;;1.50;;
23129;SDS011;11734;51.046;13.778;2023-04-03T14:29:56;2.83;;;1.50;;
23129;SDS011;11734;51.046;13.778;2023-04-03T14:32:24;1.27;;;1.10;;
23129;SDS011;11734;51.046;13.778;2023-04-03T14:34:52;3.57;;;1.50;;
23129;SDS011;11734;51.046;13.778;2023-04-03T14:37:24;1.87;;;1.60;;
23129;SDS011;11734;51.046;13.778;2023-04-03T14:39:54;2.37;;;1.50;;
23129;SDS011;11734;51.046;13.778;2023-04-03T14:42:26;3.63;;;1.73;;
23129;SDS011;11734;51.046;13.778;2023-04-03T14:44:55;4.27;;;1.63;;
23129;SDS011;11734;51.046;13.778;2023-04-03T14:47:23;3.60;;;1.67;;
23129;SDS011;11734;51.046;13.778;2023-04-03T14:49:58;2.83;;;1.60;;
23129;SDS011;11734;51.046;13.778;2023-04-03T14:52:28;3.33;;;1.70;;
23129;SDS011;11734;51.046;13.778;2023-04-03T14:54:56;2.10;;;1.53;;
23129;SDS011;11734;51.046;13.778;2023-04-03T14:57:24;3.17;;;1.90;;
23129;SDS011;11734;51.046;13.778;2023-04-03T14:59:52;1.70;;;1.40;;
23129;SDS011;11734;51.046;13.778;2023-04-03T15:02:28;2.80;;;1.70;;
23129;SDS011;11734;51.046;13.778;2023-04-03T15:04:56;2.37;;;1.40;;
23129;SDS011;11734;51.046;13.778;2023-04-03T15:07:24;2.37;;;1.23;;
23129;SDS011;11734;51.046;13.778;2023-04-03T15:09:52;2.20;;;1.30;;
23129;SDS011;11734;51.046;13.778;2023-04-03T15:12:23;3.23;;;1.47;;
23129;SDS011;11734;51.046;13.778;2023-04-03T15:14:50;3.30;;;1.47;;
23129;SDS011;11734;51.046;13.778;2023-04-03T15:17:25;3.90;;;1.30;;
23129;SDS011;11734;51.046;13.778;2023-04-03T15:19:53;2.67;;;1.50;;
23129;SDS011;11734;51.046;13.778;2023-04-03T15:22:20;2.27;;;1.33;;
23129;SDS011;11734;51.046;13.778;2023-04-03T15:24:48;1.60;;;1.30;;
23129;SDS011;11734;51.046;13.778;2023-04-03T15:27:15;2.50;;;1.40;;
23129;SDS011;11734;51.046;13.778;2023-04-03T15:29:43;1.67;;;1.30;;
23129;SDS011;11734;51.046;13.778;2023-04-03T15:32:11;1.73;;;1.30;;
23129;SDS011;11734;51.046;13.778;2023-04-03T15:34:39;3.53;;;1.23;;
23129;SDS011;11734;51.046;13.778;2023-04-03T15:37:06;2.20;;;1.47;;
23129;SDS011;11734;51.046;13.778;2023-04-03T15:39:33;1.50;;;1.40;;
23129;SDS011;11734;51.046;13.778;2023-04-03T15:42:01;2.03;;;1.30;;
23129;SDS011;11734;51.046;13.778;2023-04-03T15:44:35;2.77;;;1.50;;
23129;SDS011;11734;51.046;13.778;2023-04-03T15:47:03;1.67;;;1.43;;
23129;SDS011;11734;51.046;13.778;2023-04-03T15:49:32;1.73;;;1.50;;
23129;SDS011;11734;51.046;13.778;2023-04-03T15:51:59;2.17;;;1.30;;
23129;SDS011;11734;51.046;13.778;2023-04-03T15:54:27;2.73;;;1.40;;
23129;SDS011;11734;51.046;13.778;2023-04-03T15:56:56;3.53;;;1.20;;
23129;SDS011;11734;51.046;13.778;2023-04-03T15:59:23;1.40;;;1.17;;
23129;SDS011;11734;51.046;13.778;2023-04-03T16:01:51;2.03;;;1.20;;
23129;SDS011;11734;51.046;13.778;2023-04-03T16:04:19;3.47;;;1.47;;
23129;SDS011;11734;51.046;13.778;2023-04-03T16:06:48;2.33;;;1.47;;
23129;SDS011;11734;51.046;13.778;2023-04-03T16:09:15;1.87;;;1.30;;
23129;SDS011;11734;51.046;13.778;2023-04-03T16:11:43;1.30;;;1.20;;
23129;SDS011;11734;51.046;13.778;2023-04-03T16:14:10;2.33;;;1.47;;
23129;SDS011;11734;51.046;13.778;2023-04-03T16:16:38;1.40;;;1.30;;
23129;SDS011;11734;51.046;13.778;2023-04-03T16:19:05;1.87;;;1.57;;
23129;SDS011;11734;51.046;13.778;2023-04-03T16:21:32;1.80;;;1.30;;
23129;SDS011;11734;51.046;13.778;2023-04-03T16:24:00;1.73;;;1.03;;
23129;SDS011;11734;51.046;13.778;2023-04-03T16:26:28;2.27;;;1.27;;
23129;SDS011;11734;51.046;13.778;2023-04-03T16:28:55;2.97;;;1.57;;
23129;SDS011;11734;51.046;13.778;2023-04-03T16:31:23;1.83;;;1.67;;
23129;SDS011;11734;51.046;13.778;2023-04-03T16:33:51;2.87;;;1.47;;